sensor_id;sensor_type;location;lat;lon;timestamp;temperature;humidity
16160;DHT22;8185;57.818;15.224;2023-04-25T00:00:25;6.70;99.90
16160;DHT22;8185;57.818;15.224;2023-04-25T00:02:52;6.70;99.90
16160;DHT22;8185;57.818;15.224;2023-04-25T00:05:19;6.70;99.90
16160;DHT22;8185;57.818;15.224;2023-04-25T00:07:50;6.70;99.90
16160;DHT22;8185;57.818;15.224;2023-04-25T00:10:17;6.70;99.90
16160;DHT22;8185;57.818;15.224;2023-04-25T00:12:45;6.70;99.90
16160;DHT22;8185;57.818;15.224;2023-04-25T00:15:12;6.60;99.90
16160;DHT22;8185;57.818;15.224;2023-04-25T00:17:39;6.70;99.90
16160;DHT22;8185;57.818;15.224;2023-04-25T00:20:07;6.70;99.90
16160;DHT22;8185;57.818;15.224;2023-04-25T00:22:35;6.70;99.90
16160;DHT22;8185;57.818;15.224;2023-04-25T00:25:06;6.70;99.90
16160;DHT22;8185;57.818;15.224;2023-04-25T00:27:33;6.70;99.90
16160;DHT22;8185;57.818;15.224;2023-04-25T00:30:00;6.70;99.90
16160;DHT22;8185;57.818;15.224;2023-04-25T00:32:28;6.70;99.90
16160;DHT22;8185;57.818;15.224;2023-04-25T00:34:55;6.70;99.90
16160;DHT22;8185;57.818;15.224;2023-04-25T00:37:23;6.70;99.90
16160;DHT22;8185;57.818;15.224;2023-04-25T00:39:50;6.60;99.90
16160;DHT22;8185;57.818;15.224;2023-04-25T00:42:20;6.60;99.90
16160;DHT22;8185;57.818;15.224;2023-04-25T00:44:48;6.60;99.90
16160;DHT22;8185;57.818;15.224;2023-04-25T00:47:15;6.60;99.90
16160;DHT22;8185;57.818;15.224;2023-04-25T00:49:43;6.60;99.90
16160;DHT22;8185;57.818;15.224;2023-04-25T00:52:10;6.60;99.90
16160;DHT22;8185;57.818;15.224;2023-04-25T00:54:38;6.60;99.90
16160;DHT22;8185;57.818;15.224;2023-04-25T00:57:05;6.60;99.90
16160;DHT22;8185;57.818;15.224;2023-04-25T00:59:34;6.70;99.90
16160;DHT22;8185;57.818;15.224;2023-04-25T01:02:03;6.60;99.90
16160;DHT22;8185;57.818;15.224;2023-04-25T01:04:30;6.70;99.90
16160;DHT22;8185;57.818;15.224;2023-04-25T01:06:58;6.60;99.90
16160;DHT22;8185;57.818;15.224;2023-04-25T01:09:26;6.60;99.90
16160;DHT22;8185;57.818;15.224;2023-04-25T01:11:53;6.60;99.90
16160;DHT22;8185;57.818;15.224;2023-04-25T01:14:20;6.60;99.90
16160;DHT22;8185;57.818;15.224;2023-04-25T01:16:49;6.60;99.90
16160;DHT22;8185;57.818;15.224;2023-04-25T01:19:17;6.60;99.90
16160;DHT22;8185;57.818;15.224;2023-04-25T01:21:47;6.60;99.90
16160;DHT22;8185;57.818;15.224;2023-04-25T01:24:14;6.60;99.90
16160;DHT22;8185;57.818;15.224;2023-04-25T01:26:42;6.60;99.90
16160;DHT22;8185;57.818;15.224;2023-04-25T01:29:15;6.60;99.90
16160;DHT22;8185;57.818;15.224;2023-04-25T01:31:43;6.60;99.90
16160;DHT22;8185;57.818;15.224;2023-04-25T01:34:11;6.60;99.90
16160;DHT22;8185;57.818;15.224;2023-04-25T01:36:38;6.60;99.90
16160;DHT22;8185;57.818;15.224;2023-04-25T01:39:08;6.60;99.90
16160;DHT22;8185;57.818;15.224;2023-04-25T01:41:35;6.50;99.90
16160;DHT22;8185;57.818;15.224;2023-04-25T01:44:02;6.60;99.90
16160;DHT22;8185;57.818;15.224;2023-04-25T01:46:30;6.50;99.90
16160;DHT22;8185;57.818;15.224;2023-04-25T01:48:57;6.60;99.90
16160;DHT22;8185;57.818;15.224;2023-04-25T01:51:24;6.60;99.90
16160;DHT22;8185;57.818;15.224;2023-04-25T01:53:52;6.60;99.90
16160;DHT22;8185;57.818;15.224;2023-04-25T01:56:22;6.60;99.90
16160;DHT22;8185;57.818;15.224;2023-04-25T01:58:49;6.60;99.90
16160;DHT22;8185;57.818;15.224;2023-04-25T02:01:16;6.60;99.90
16160;DHT22;8185;57.818;15.224;2023-04-25T02:03:44;6.60;99.90
16160;DHT22;8185;57.818;15.224;2023-04-25T02:06:11;6.60;99.90
16160;DHT22;8185;57.818;15.224;2023-04-25T02:08:38;6.60;99.90
16160;DHT22;8185;57.818;15.224;2023-04-25T02:11:05;6.70;99.90
16160;DHT22;8185;57.818;15.224;2023-04-25T02:13:33;6.60;99.90
16160;DHT22;8185;57.818;15.224;2023-04-25T02:16:01;6.60;99.90
16160;DHT22;8185;57.818;15.224;2023-04-25T02:18:28;6.70;99.90
16160;DHT22;8185;57.818;15.224;2023-04-25T02:20:55;6.70;99.90
16160;DHT22;8185;57.818;15.224;2023-04-25T02:23:22;6.70;99.90
16160;DHT22;8185;57.818;15.224;2023-04-25T02:25:50;6.70;99.90
16160;DHT22;8185;57.818;15.224;2023-04-25T02:28:17;6.70;99.90
16160;DHT22;8185;57.818;15.224;2023-04-25T02:30:46;6.70;99.90
16160;DHT22;8185;57.818;15.224;2023-04-25T02:33:13;6.70;99.90
16160;DHT22;8185;57.818;15.224;2023-04-25T02:35:42;6.70;99.90
16160;DHT22;8185;57.818;15.224;2023-04-25T02:38:10;6.70;99.90
16160;DHT22;8185;57.818;15.224;2023-04-25T02:40:37;6.70;99.90
16160;DHT22;8185;57.818;15.224;2023-04-25T02:43:04;6.70;99.90
16160;DHT22;8185;57.818;15.224;2023-04-25T02:45:31;6.70;99.90
16160;DHT22;8185;57.818;15.224;2023-04-25T02:48:00;6.70;99.90
16160;DHT22;8185;57.818;15.224;2023-04-25T02:50:27;6.70;99.90
16160;DHT22;8185;57.818;15.224;2023-04-25T02:52:54;6.70;99.90
16160;DHT22;8185;57.818;15.224;2023-04-25T02:55:21;6.70;99.90
16160;DHT22;8185;57.818;15.224;2023-04-25T02:57:49;6.70;99.90
16160;DHT22;8185;57.818;15.224;2023-04-25T03:00:16;6.70;99.90
16160;DHT22;8185;57.818;15.224;2023-04-25T03:02:43;6.70;99.90
16160;DHT22;8185;57.818;15.224;2023-04-25T03:05:12;6.70;99.90
16160;DHT22;8185;57.818;15.224;2023-04-25T03:07:39;6.70;99.90
16160;DHT22;8185;57.818;15.224;2023-04-25T03:10:07;6.70;99.90
16160;DHT22;8185;57.818;15.224;2023-04-25T03:12:34;6.70;99.90
16160;DHT22;8185;57.818;15.224;2023-04-25T03:15:01;6.70;99.90
16160;DHT22;8185;57.818;15.224;2023-04-25T03:17:29;6.70;99.90
16160;DHT22;8185;57.818;15.224;2023-04-25T03:19:57;6.70;99.90
16160;DHT22;8185;57.818;15.224;2023-04-25T03:22:26;6.70;99.90
16160;DHT22;8185;57.818;15.224;2023-04-25T03:24:53;6.70;99.90
16160;DHT22;8185;57.818;15.224;2023-04-25T03:27:20;6.70;99.90
16160;DHT22;8185;57.818;15.224;2023-04-25T03:29:47;6.70;99.90
16160;DHT22;8185;57.818;15.224;2023-04-25T03:32:14;6.70;99.90
16160;DHT22;8185;57.818;15.224;2023-04-25T03:34:41;6.70;99.90
16160;DHT22;8185;57.818;15.224;2023-04-25T03:37:08;6.70;99.90
16160;DHT22;8185;57.818;15.224;2023-04-25T03:39:37;6.70;99.90
16160;DHT22;8185;57.818;15.224;2023-04-25T03:42:04;6.70;99.90
16160;DHT22;8185;57.818;15.224;2023-04-25T03:44:32;6.60;99.90
16160;DHT22;8185;57.818;15.224;2023-04-25T03:46:59;6.60;99.90
16160;DHT22;8185;57.818;15.224;2023-04-25T03:49:26;6.60;99.90
16160;DHT22;8185;57.818;15.224;2023-04-25T03:51:53;6.50;99.90
16160;DHT22;8185;57.818;15.224;2023-04-25T03:54:20;6.50;99.90
16160;DHT22;8185;57.818;15.224;2023-04-25T03:56:49;6.40;99.90
16160;DHT22;8185;57.818;15.224;2023-04-25T03:59:16;6.50;99.90
16160;DHT22;8185;57.818;15.224;2023-04-25T04:01:43;6.50;99.90
16160;DHT22;8185;57.818;15.224;2023-04-25T04:04:10;6.50;99.90
16160;DHT22;8185;57.818;15.224;2023-04-25T04:06:37;6.60;99.90
16160;DHT22;8185;57.818;15.224;2023-04-25T04:09:05;6.60;99.90
16160;DHT22;8185;57.818;15.224;2023-04-25T04:11:36;6.60;99.90
16160;DHT22;8185;57.818;15.224;2023-04-25T04:14:05;6.60;99.90
16160;DHT22;8185;57.818;15.224;2023-04-25T04:16:33;6.60;99.90
16160;DHT22;8185;57.818;15.224;2023-04-25T04:19:00;6.60;99.90
16160;DHT22;8185;57.818;15.224;2023-04-25T04:21:27;6.50;99.90
16160;DHT22;8185;57.818;15.224;2023-04-25T04:23:54;6.60;99.90
16160;DHT22;8185;57.818;15.224;2023-04-25T04:26:23;6.60;99.90
16160;DHT22;8185;57.818;15.224;2023-04-25T04:28:52;6.60;99.90
16160;DHT22;8185;57.818;15.224;2023-04-25T04:31:21;6.70;99.90
16160;DHT22;8185;57.818;15.224;2023-04-25T04:33:48;6.80;99.90
16160;DHT22;8185;57.818;15.224;2023-04-25T04:36:16;6.90;99.90
16160;DHT22;8185;57.818;15.224;2023-04-25T04:38:45;7.00;99.90
16160;DHT22;8185;57.818;15.224;2023-04-25T04:41:13;7.00;99.90
16160;DHT22;8185;57.818;15.224;2023-04-25T04:43:40;7.00;99.90
16160;DHT22;8185;57.818;15.224;2023-04-25T04:46:07;7.00;99.90
16160;DHT22;8185;57.818;15.224;2023-04-25T04:48:37;7.00;99.90
16160;DHT22;8185;57.818;15.224;2023-04-25T04:51:06;7.00;99.90
16160;DHT22;8185;57.818;15.224;2023-04-25T04:53:33;7.10;99.90
16160;DHT22;8185;57.818;15.224;2023-04-25T04:56:00;7.10;99.90
16160;DHT22;8185;57.818;15.224;2023-04-25T04:58:27;7.10;99.90
16160;DHT22;8185;57.818;15.224;2023-04-25T05:00:56;7.10;99.90
16160;DHT22;8185;57.818;15.224;2023-04-25T05:03:23;7.20;99.90
16160;DHT22;8185;57.818;15.224;2023-04-25T05:05:52;7.10;99.90
16160;DHT22;8185;57.818;15.224;2023-04-25T05:08:19;7.20;99.90
16160;DHT22;8185;57.818;15.224;2023-04-25T05:10:46;7.20;99.90
16160;DHT22;8185;57.818;15.224;2023-04-25T05:13:13;7.30;99.90
16160;DHT22;8185;57.818;15.224;2023-04-25T05:15:41;7.20;99.90
16160;DHT22;8185;57.818;15.224;2023-04-25T05:18:08;7.20;99.90
16160;DHT22;8185;57.818;15.224;2023-04-25T05:20:35;7.20;99.90
16160;DHT22;8185;57.818;15.224;2023-04-25T05:23:04;7.20;99.90
16160;DHT22;8185;57.818;15.224;2023-04-25T05:25:31;7.30;99.90
16160;DHT22;8185;57.818;15.224;2023-04-25T05:27:58;7.30;99.90
16160;DHT22;8185;57.818;15.224;2023-04-25T05:30:25;7.30;99.90
16160;DHT22;8185;57.818;15.224;2023-04-25T05:32:52;7.30;99.90
16160;DHT22;8185;57.818;15.224;2023-04-25T05:35:20;7.40;99.90
16160;DHT22;8185;57.818;15.224;2023-04-25T05:37:47;7.40;99.90
16160;DHT22;8185;57.818;15.224;2023-04-25T05:40:16;7.50;99.90
16160;DHT22;8185;57.818;15.224;2023-04-25T05:42:43;7.50;99.90
16160;DHT22;8185;57.818;15.224;2023-04-25T05:45:10;7.60;99.90
16160;DHT22;8185;57.818;15.224;2023-04-25T05:47:39;7.70;99.90
16160;DHT22;8185;57.818;15.224;2023-04-25T05:50:07;7.80;99.90
16160;DHT22;8185;57.818;15.224;2023-04-25T05:52:35;7.80;99.90
16160;DHT22;8185;57.818;15.224;2023-04-25T05:55:03;7.80;99.90
16160;DHT22;8185;57.818;15.224;2023-04-25T05:57:31;7.90;99.90
16160;DHT22;8185;57.818;15.224;2023-04-25T05:59:59;7.80;99.90
16160;DHT22;8185;57.818;15.224;2023-04-25T06:02:26;7.90;99.90
16160;DHT22;8185;57.818;15.224;2023-04-25T06:04:53;8.00;99.90
16160;DHT22;8185;57.818;15.224;2023-04-25T06:07:20;8.10;99.90
16160;DHT22;8185;57.818;15.224;2023-04-25T06:09:48;8.20;99.90
16160;DHT22;8185;57.818;15.224;2023-04-25T06:12:15;8.20;99.90
16160;DHT22;8185;57.818;15.224;2023-04-25T06:14:44;8.30;99.90
16160;DHT22;8185;57.818;15.224;2023-04-25T06:17:11;8.40;99.90
16160;DHT22;8185;57.818;15.224;2023-04-25T06:19:38;8.40;99.90
16160;DHT22;8185;57.818;15.224;2023-04-25T06:22:08;8.40;99.90
16160;DHT22;8185;57.818;15.224;2023-04-25T06:24:35;8.30;99.90
16160;DHT22;8185;57.818;15.224;2023-04-25T06:27:02;8.30;99.90
16160;DHT22;8185;57.818;15.224;2023-04-25T06:29:29;8.30;99.90
16160;DHT22;8185;57.818;15.224;2023-04-25T06:31:58;8.20;99.90
16160;DHT22;8185;57.818;15.224;2023-04-25T06:34:25;8.30;99.90
16160;DHT22;8185;57.818;15.224;2023-04-25T06:36:53;8.30;99.90
16160;DHT22;8185;57.818;15.224;2023-04-25T06:39:20;8.30;99.90
16160;DHT22;8185;57.818;15.224;2023-04-25T06:41:49;8.50;99.90
16160;DHT22;8185;57.818;15.224;2023-04-25T06:44:16;8.60;99.90
16160;DHT22;8185;57.818;15.224;2023-04-25T06:46:43;8.70;99.90
16160;DHT22;8185;57.818;15.224;2023-04-25T06:49:12;8.80;99.90
16160;DHT22;8185;57.818;15.224;2023-04-25T06:51:40;8.90;99.90
16160;DHT22;8185;57.818;15.224;2023-04-25T06:54:08;9.00;99.90
16160;DHT22;8185;57.818;15.224;2023-04-25T06:56:35;9.10;99.90
16160;DHT22;8185;57.818;15.224;2023-04-25T06:59:02;9.10;99.90
16160;DHT22;8185;57.818;15.224;2023-04-25T07:01:30;9.10;99.90
16160;DHT22;8185;57.818;15.224;2023-04-25T07:03:57;9.10;99.90
16160;DHT22;8185;57.818;15.224;2023-04-25T07:06:26;9.20;99.90
16160;DHT22;8185;57.818;15.224;2023-04-25T07:08:53;9.20;99.90
16160;DHT22;8185;57.818;15.224;2023-04-25T07:11:21;9.40;99.90
16160;DHT22;8185;57.818;15.224;2023-04-25T07:13:48;9.60;99.90
16160;DHT22;8185;57.818;15.224;2023-04-25T07:16:16;9.70;99.90
16160;DHT22;8185;57.818;15.224;2023-04-25T07:18:43;9.60;99.90
16160;DHT22;8185;57.818;15.224;2023-04-25T07:21:11;9.50;99.90
16160;DHT22;8185;57.818;15.224;2023-04-25T07:23:39;9.50;99.90
16160;DHT22;8185;57.818;15.224;2023-04-25T07:26:07;9.60;99.90
16160;DHT22;8185;57.818;15.224;2023-04-25T07:28:34;9.60;99.90
16160;DHT22;8185;57.818;15.224;2023-04-25T07:31:02;9.60;99.90
16160;DHT22;8185;57.818;15.224;2023-04-25T07:33:29;9.50;99.90
16160;DHT22;8185;57.818;15.224;2023-04-25T07:35:56;9.50;99.90
16160;DHT22;8185;57.818;15.224;2023-04-25T07:38:24;9.50;99.90
16160;DHT22;8185;57.818;15.224;2023-04-25T07:40:52;9.50;99.90
16160;DHT22;8185;57.818;15.224;2023-04-25T07:43:20;9.60;99.90
16160;DHT22;8185;57.818;15.224;2023-04-25T07:45:47;9.70;99.90
16160;DHT22;8185;57.818;15.224;2023-04-25T07:48:17;9.60;99.90
16160;DHT22;8185;57.818;15.224;2023-04-25T07:50:45;9.60;99.90
16160;DHT22;8185;57.818;15.224;2023-04-25T07:53:12;9.70;99.90
16160;DHT22;8185;57.818;15.224;2023-04-25T07:55:39;9.50;99.90
16160;DHT22;8185;57.818;15.224;2023-04-25T07:58:08;9.40;99.90
16160;DHT22;8185;57.818;15.224;2023-04-25T08:00:35;9.40;99.90
16160;DHT22;8185;57.818;15.224;2023-04-25T08:03:03;9.30;99.90
16160;DHT22;8185;57.818;15.224;2023-04-25T08:05:31;9.20;99.90
16160;DHT22;8185;57.818;15.224;2023-04-25T08:07:58;9.10;99.90
16160;DHT22;8185;57.818;15.224;2023-04-25T08:10:26;9.00;99.90
16160;DHT22;8185;57.818;15.224;2023-04-25T08:12:54;9.00;99.90
16160;DHT22;8185;57.818;15.224;2023-04-25T08:15:22;9.10;99.90
16160;DHT22;8185;57.818;15.224;2023-04-25T08:17:49;9.10;99.90
16160;DHT22;8185;57.818;15.224;2023-04-25T08:20:17;9.20;99.90
16160;DHT22;8185;57.818;15.224;2023-04-25T08:22:44;9.20;99.90
16160;DHT22;8185;57.818;15.224;2023-04-25T08:25:11;9.20;99.90
16160;DHT22;8185;57.818;15.224;2023-04-25T08:27:39;9.20;99.90
16160;DHT22;8185;57.818;15.224;2023-04-25T08:30:07;9.30;99.90
16160;DHT22;8185;57.818;15.224;2023-04-25T08:32:36;9.20;99.90
16160;DHT22;8185;57.818;15.224;2023-04-25T08:35:05;9.20;99.90
16160;DHT22;8185;57.818;15.224;2023-04-25T08:37:32;9.20;99.90
16160;DHT22;8185;57.818;15.224;2023-04-25T08:40:00;9.20;99.90
16160;DHT22;8185;57.818;15.224;2023-04-25T08:42:31;9.10;99.90
16160;DHT22;8185;57.818;15.224;2023-04-25T08:45:01;9.00;99.90
16160;DHT22;8185;57.818;15.224;2023-04-25T08:47:30;9.00;99.90
16160;DHT22;8185;57.818;15.224;2023-04-25T08:50:02;8.90;99.90
16160;DHT22;8185;57.818;15.224;2023-04-25T08:52:36;8.80;99.90
16160;DHT22;8185;57.818;15.224;2023-04-25T08:55:05;8.70;99.90
16160;DHT22;8185;57.818;15.224;2023-04-25T08:57:35;8.70;99.90
16160;DHT22;8185;57.818;15.224;2023-04-25T09:00:03;8.60;99.90
16160;DHT22;8185;57.818;15.224;2023-04-25T09:02:31;8.50;99.90
16160;DHT22;8185;57.818;15.224;2023-04-25T09:05:00;8.50;99.90
16160;DHT22;8185;57.818;15.224;2023-04-25T09:07:28;8.60;99.90
16160;DHT22;8185;57.818;15.224;2023-04-25T09:09:55;8.60;99.90
16160;DHT22;8185;57.818;15.224;2023-04-25T09:12:23;8.70;99.90
16160;DHT22;8185;57.818;15.224;2023-04-25T09:15:05;8.80;99.90
16160;DHT22;8185;57.818;15.224;2023-04-25T09:17:32;9.10;99.90
16160;DHT22;8185;57.818;15.224;2023-04-25T09:20:09;9.20;99.90
16160;DHT22;8185;57.818;15.224;2023-04-25T09:22:37;9.30;99.90
16160;DHT22;8185;57.818;15.224;2023-04-25T09:25:08;9.40;99.90
16160;DHT22;8185;57.818;15.224;2023-04-25T09:27:36;9.60;99.90
16160;DHT22;8185;57.818;15.224;2023-04-25T09:30:16;9.70;99.90
16160;DHT22;8185;57.818;15.224;2023-04-25T09:32:44;9.60;99.90
16160;DHT22;8185;57.818;15.224;2023-04-25T09:35:23;9.80;99.90
16160;DHT22;8185;57.818;15.224;2023-04-25T09:37:51;9.80;99.90
16160;DHT22;8185;57.818;15.224;2023-04-25T09:40:19;10.00;99.90
16160;DHT22;8185;57.818;15.224;2023-04-25T09:42:46;10.10;99.90
16160;DHT22;8185;57.818;15.224;2023-04-25T09:45:13;10.00;99.90
16160;DHT22;8185;57.818;15.224;2023-04-25T09:47:41;10.40;99.90
16160;DHT22;8185;57.818;15.224;2023-04-25T09:50:16;10.50;99.90
16160;DHT22;8185;57.818;15.224;2023-04-25T09:52:44;10.30;99.90
16160;DHT22;8185;57.818;15.224;2023-04-25T09:55:13;10.30;99.90
16160;DHT22;8185;57.818;15.224;2023-04-25T09:57:40;10.10;99.90
16160;DHT22;8185;57.818;15.224;2023-04-25T10:00:09;10.00;99.90
16160;DHT22;8185;57.818;15.224;2023-04-25T10:02:39;10.10;99.90
16160;DHT22;8185;57.818;15.224;2023-04-25T10:05:10;10.10;99.90
16160;DHT22;8185;57.818;15.224;2023-04-25T10:07:40;10.00;99.90
16160;DHT22;8185;57.818;15.224;2023-04-25T10:10:08;10.20;99.90
16160;DHT22;8185;57.818;15.224;2023-04-25T10:12:36;10.30;99.90
16160;DHT22;8185;57.818;15.224;2023-04-25T10:15:06;10.10;99.90
16160;DHT22;8185;57.818;15.224;2023-04-25T10:17:35;10.10;99.90
16160;DHT22;8185;57.818;15.224;2023-04-25T10:20:03;10.10;99.90
16160;DHT22;8185;57.818;15.224;2023-04-25T10:22:36;10.30;99.90
16160;DHT22;8185;57.818;15.224;2023-04-25T10:25:07;10.50;99.90
16160;DHT22;8185;57.818;15.224;2023-04-25T10:27:35;10.30;99.90
16160;DHT22;8185;57.818;15.224;2023-04-25T10:30:04;10.30;99.90
16160;DHT22;8185;57.818;15.224;2023-04-25T10:32:32;10.50;99.90
16160;DHT22;8185;57.818;15.224;2023-04-25T10:35:11;10.80;99.90
16160;DHT22;8185;57.818;15.224;2023-04-25T10:37:38;10.90;99.90
16160;DHT22;8185;57.818;15.224;2023-04-25T10:40:25;10.80;99.90
16160;DHT22;8185;57.818;15.224;2023-04-25T10:42:52;10.60;99.90
16160;DHT22;8185;57.818;15.224;2023-04-25T10:45:20;10.50;99.90
16160;DHT22;8185;57.818;15.224;2023-04-25T10:47:47;10.60;99.90
16160;DHT22;8185;57.818;15.224;2023-04-25T10:50:15;10.80;99.90
16160;DHT22;8185;57.818;15.224;2023-04-25T10:52:43;10.80;99.90
16160;DHT22;8185;57.818;15.224;2023-04-25T10:55:10;10.60;99.90
16160;DHT22;8185;57.818;15.224;2023-04-25T10:57:40;10.50;99.90
16160;DHT22;8185;57.818;15.224;2023-04-25T11:00:12;10.60;99.90
16160;DHT22;8185;57.818;15.224;2023-04-25T11:02:41;10.50;99.90
16160;DHT22;8185;57.818;15.224;2023-04-25T11:05:14;10.70;99.90
16160;DHT22;8185;57.818;15.224;2023-04-25T11:07:48;11.00;99.90
16160;DHT22;8185;57.818;15.224;2023-04-25T11:10:16;10.80;99.90
16160;DHT22;8185;57.818;15.224;2023-04-25T11:12:46;10.80;99.90
16160;DHT22;8185;57.818;15.224;2023-04-25T11:15:14;10.90;99.90
16160;DHT22;8185;57.818;15.224;2023-04-25T11:17:41;10.80;99.90
16160;DHT22;8185;57.818;15.224;2023-04-25T11:20:10;11.30;99.90
16160;DHT22;8185;57.818;15.224;2023-04-25T11:22:39;11.90;99.90
16160;DHT22;8185;57.818;15.224;2023-04-25T11:25:09;12.60;99.90
16160;DHT22;8185;57.818;15.224;2023-04-25T11:27:57;13.10;99.90
16160;DHT22;8185;57.818;15.224;2023-04-25T11:30:25;13.20;99.90
16160;DHT22;8185;57.818;15.224;2023-04-25T11:32:53;13.10;99.90
16160;DHT22;8185;57.818;15.224;2023-04-25T11:35:20;12.70;99.90
16160;DHT22;8185;57.818;15.224;2023-04-25T11:37:49;12.50;99.90
16160;DHT22;8185;57.818;15.224;2023-04-25T11:40:16;12.30;99.90
16160;DHT22;8185;57.818;15.224;2023-04-25T11:42:44;11.80;99.90
16160;DHT22;8185;57.818;15.224;2023-04-25T11:45:14;11.70;99.90
16160;DHT22;8185;57.818;15.224;2023-04-25T11:47:41;11.70;99.90
16160;DHT22;8185;57.818;15.224;2023-04-25T11:50:09;12.20;99.90
16160;DHT22;8185;57.818;15.224;2023-04-25T11:52:38;13.20;99.90
16160;DHT22;8185;57.818;15.224;2023-04-25T11:55:07;13.60;99.90
16160;DHT22;8185;57.818;15.224;2023-04-25T11:57:35;14.70;99.90
16160;DHT22;8185;57.818;15.224;2023-04-25T12:00:08;14.20;99.90
16160;DHT22;8185;57.818;15.224;2023-04-25T12:02:40;14.40;99.90
16160;DHT22;8185;57.818;15.224;2023-04-25T12:05:09;13.90;99.90
16160;DHT22;8185;57.818;15.224;2023-04-25T12:07:36;13.70;99.90
16160;DHT22;8185;57.818;15.224;2023-04-25T12:10:05;13.40;99.90
16160;DHT22;8185;57.818;15.224;2023-04-25T12:12:33;12.90;99.90
16160;DHT22;8185;57.818;15.224;2023-04-25T12:15:12;12.60;99.90
16160;DHT22;8185;57.818;15.224;2023-04-25T12:17:45;12.50;99.90
16160;DHT22;8185;57.818;15.224;2023-04-25T12:20:14;12.20;99.90
16160;DHT22;8185;57.818;15.224;2023-04-25T12:22:42;12.20;99.90
16160;DHT22;8185;57.818;15.224;2023-04-25T12:25:12;12.00;99.90
16160;DHT22;8185;57.818;15.224;2023-04-25T12:27:40;12.10;99.90
16160;DHT22;8185;57.818;15.224;2023-04-25T12:30:10;11.90;99.90
16160;DHT22;8185;57.818;15.224;2023-04-25T12:32:37;11.90;99.90
16160;DHT22;8185;57.818;15.224;2023-04-25T12:35:06;12.00;99.90
16160;DHT22;8185;57.818;15.224;2023-04-25T12:37:34;12.00;99.90
16160;DHT22;8185;57.818;15.224;2023-04-25T12:40:02;11.90;99.90
16160;DHT22;8185;57.818;15.224;2023-04-25T12:42:30;11.80;99.90
16160;DHT22;8185;57.818;15.224;2023-04-25T12:44:57;11.60;99.90
16160;DHT22;8185;57.818;15.224;2023-04-25T12:47:24;11.60;99.90
16160;DHT22;8185;57.818;15.224;2023-04-25T12:49:52;11.50;99.90
16160;DHT22;8185;57.818;15.224;2023-04-25T12:52:20;11.40;99.90
16160;DHT22;8185;57.818;15.224;2023-04-25T12:54:47;11.10;99.90
16160;DHT22;8185;57.818;15.224;2023-04-25T12:57:14;11.00;99.90
16160;DHT22;8185;57.818;15.224;2023-04-25T12:59:42;11.00;99.90
16160;DHT22;8185;57.818;15.224;2023-04-25T13:02:09;11.00;99.90
16160;DHT22;8185;57.818;15.224;2023-04-25T13:04:36;10.90;99.90
16160;DHT22;8185;57.818;15.224;2023-04-25T13:07:03;11.00;99.90
16160;DHT22;8185;57.818;15.224;2023-04-25T13:09:32;11.00;99.90
16160;DHT22;8185;57.818;15.224;2023-04-25T13:11:59;11.10;99.90
16160;DHT22;8185;57.818;15.224;2023-04-25T13:14:27;11.40;99.90
16160;DHT22;8185;57.818;15.224;2023-04-25T13:16:54;11.60;99.90
16160;DHT22;8185;57.818;15.224;2023-04-25T13:19:22;11.70;99.90
16160;DHT22;8185;57.818;15.224;2023-04-25T13:21:49;11.80;99.90
16160;DHT22;8185;57.818;15.224;2023-04-25T13:24:16;11.90;99.90
16160;DHT22;8185;57.818;15.224;2023-04-25T13:26:45;12.10;99.90
16160;DHT22;8185;57.818;15.224;2023-04-25T13:29:12;12.00;99.90
16160;DHT22;8185;57.818;15.224;2023-04-25T13:31:39;12.20;99.90
16160;DHT22;8185;57.818;15.224;2023-04-25T13:34:06;12.20;99.90
16160;DHT22;8185;57.818;15.224;2023-04-25T13:36:33;12.00;99.90
16160;DHT22;8185;57.818;15.224;2023-04-25T13:39:01;11.90;99.90
16160;DHT22;8185;57.818;15.224;2023-04-25T13:41:30;12.00;99.90
16160;DHT22;8185;57.818;15.224;2023-04-25T13:43:59;12.40;99.90
16160;DHT22;8185;57.818;15.224;2023-04-25T13:46:26;13.30;99.90
16160;DHT22;8185;57.818;15.224;2023-04-25T13:48:54;13.90;99.90
16160;DHT22;8185;57.818;15.224;2023-04-25T13:51:21;14.10;99.90
16160;DHT22;8185;57.818;15.224;2023-04-25T13:53:48;14.40;99.90
16160;DHT22;8185;57.818;15.224;2023-04-25T13:56:15;14.30;99.90
16160;DHT22;8185;57.818;15.224;2023-04-25T13:58:45;13.90;99.90
16160;DHT22;8185;57.818;15.224;2023-04-25T14:01:14;13.60;99.90
16160;DHT22;8185;57.818;15.224;2023-04-25T14:03:41;13.30;99.90
16160;DHT22;8185;57.818;15.224;2023-04-25T14:06:08;12.70;99.90
16160;DHT22;8185;57.818;15.224;2023-04-25T14:08:36;12.40;99.90
16160;DHT22;8185;57.818;15.224;2023-04-25T14:11:04;11.90;99.90
16160;DHT22;8185;57.818;15.224;2023-04-25T14:13:31;10.40;99.90
16160;DHT22;8185;57.818;15.224;2023-04-25T14:15:58;9.00;99.90
16160;DHT22;8185;57.818;15.224;2023-04-25T14:18:27;8.40;99.90
16160;DHT22;8185;57.818;15.224;2023-04-25T14:20:55;8.30;99.90
16160;DHT22;8185;57.818;15.224;2023-04-25T14:23:22;8.30;99.90
16160;DHT22;8185;57.818;15.224;2023-04-25T14:25:49;8.30;99.90
16160;DHT22;8185;57.818;15.224;2023-04-25T14:28:16;8.30;99.90
16160;DHT22;8185;57.818;15.224;2023-04-25T14:30:43;8.30;99.90
16160;DHT22;8185;57.818;15.224;2023-04-25T14:33:11;8.40;99.90
16160;DHT22;8185;57.818;15.224;2023-04-25T14:35:41;8.40;99.90
16160;DHT22;8185;57.818;15.224;2023-04-25T14:38:08;8.50;99.90
16160;DHT22;8185;57.818;15.224;2023-04-25T14:40:35;8.50;99.90
16160;DHT22;8185;57.818;15.224;2023-04-25T14:43:03;8.50;99.90
16160;DHT22;8185;57.818;15.224;2023-04-25T14:45:31;8.50;99.90
16160;DHT22;8185;57.818;15.224;2023-04-25T14:47:58;8.40;99.90
16160;DHT22;8185;57.818;15.224;2023-04-25T14:50:25;8.30;99.90
16160;DHT22;8185;57.818;15.224;2023-04-25T14:52:54;8.30;99.90
16160;DHT22;8185;57.818;15.224;2023-04-25T14:55:24;8.40;99.90
16160;DHT22;8185;57.818;15.224;2023-04-25T14:57:52;8.40;99.90
16160;DHT22;8185;57.818;15.224;2023-04-25T15:00:19;8.50;99.90
16160;DHT22;8185;57.818;15.224;2023-04-25T15:02:48;8.50;99.90
16160;DHT22;8185;57.818;15.224;2023-04-25T15:05:15;8.50;99.90
16160;DHT22;8185;57.818;15.224;2023-04-25T15:07:43;8.50;99.90
16160;DHT22;8185;57.818;15.224;2023-04-25T15:10:12;8.60;99.90
16160;DHT22;8185;57.818;15.224;2023-04-25T15:12:41;8.70;99.90
16160;DHT22;8185;57.818;15.224;2023-04-25T15:15:09;8.70;99.90
16160;DHT22;8185;57.818;15.224;2023-04-25T15:17:37;8.80;99.90
16160;DHT22;8185;57.818;15.224;2023-04-25T15:20:06;8.70;99.90
16160;DHT22;8185;57.818;15.224;2023-04-25T15:22:35;8.90;99.90
16160;DHT22;8185;57.818;15.224;2023-04-25T15:25:03;9.00;99.90
16160;DHT22;8185;57.818;15.224;2023-04-25T15:27:31;9.10;99.90
16160;DHT22;8185;57.818;15.224;2023-04-25T15:29:59;9.10;99.90
16160;DHT22;8185;57.818;15.224;2023-04-25T15:32:26;9.20;99.90
16160;DHT22;8185;57.818;15.224;2023-04-25T15:34:53;9.20;99.90
16160;DHT22;8185;57.818;15.224;2023-04-25T15:37:22;9.20;99.90
16160;DHT22;8185;57.818;15.224;2023-04-25T15:40:01;9.20;99.90
16160;DHT22;8185;57.818;15.224;2023-04-25T15:42:31;9.30;99.90
16160;DHT22;8185;57.818;15.224;2023-04-25T15:44:58;9.30;99.90
16160;DHT22;8185;57.818;15.224;2023-04-25T15:47:25;9.30;99.90